createdAt,value
2022-12-25T20:15:14.587Z,11.58
2022-12-25T20:18:16.850Z,11.63
2022-12-25T20:21:20.717Z,11.61
2022-12-25T20:24:23.379Z,11.62
2022-12-25T20:27:25.040Z,11.49
2022-12-25T20:30:28.113Z,11.62
2022-12-25T20:33:29.812Z,11.65
2022-12-25T20:36:37.217Z,11.77
2022-12-25T20:39:39.663Z,11.93
2022-12-25T20:42:43.140Z,11.90
2022-12-25T20:45:50.036Z,11.95
2022-12-25T20:48:53.076Z,11.83
2022-12-25T20:51:58.466Z,11.80
2022-12-25T20:55:03.583Z,11.71
2022-12-25T20:58:05.205Z,11.78
2022-12-25T21:01:12.708Z,11.74
2022-12-25T21:04:16.398Z,11.63
2022-12-25T21:07:18.504Z,11.63
2022-12-25T21:10:20.154Z,11.64
2022-12-25T21:13:23.677Z,11.72
2022-12-25T21:16:26.885Z,11.68
2022-12-25T21:19:28.538Z,11.67
2022-12-25T21:22:30.600Z,11.70
2022-12-25T21:25:32.221Z,11.57
2022-12-25T21:28:34.407Z,11.57
2022-12-25T21:31:56.276Z,11.52
2022-12-25T21:34:58.064Z,11.60
2022-12-25T21:37:59.705Z,11.59
2022-12-25T21:41:05.106Z,11.65
2022-12-25T21:44:07.948Z,11.68
2022-12-25T21:47:10.964Z,11.49
2022-12-25T21:50:35.999Z,11.54
2022-12-25T21:53:40.643Z,11.65
2022-12-25T21:56:45.428Z,11.51
2022-12-25T21:59:48.123Z,11.54
2022-12-25T22:02:51.156Z,11.54
2022-12-25T22:06:16.112Z,11.55
2022-12-25T22:09:21.740Z,11.52
2022-12-25T22:12:42.690Z,11.48
2022-12-25T22:16:03.037Z,11.44
2022-12-25T22:19:24.739Z,11.61
2022-12-25T22:22:28.807Z,11.68
2022-12-25T22:25:30.602Z,11.80
2022-12-25T22:28:32.264Z,11.83
2022-12-25T22:31:33.946Z,11.91
2022-12-25T22:34:37.213Z,11.88
2022-12-25T22:37:39.290Z,11.93
2022-12-25T22:40:40.916Z,11.99
2022-12-25T22:44:16.000Z,12.07
2022-12-25T22:47:04.308Z,11.93
2022-12-25T22:50:08.633Z,11.92
2022-12-25T22:53:10.214Z,11.97
2022-12-25T22:56:11.821Z,11.99
2022-12-25T22:59:15.116Z,12.03
2022-12-25T23:02:16.985Z,11.99
2022-12-25T23:05:20.124Z,12.05
2022-12-25T23:08:21.885Z,12.02
2022-12-25T23:11:23.943Z,12.13
2022-12-25T23:14:39.045Z,12.20
2022-12-25T23:17:59.239Z,12.30
2022-12-25T23:21:22.587Z,12.16
2022-12-25T23:24:43.026Z,12.28
2022-12-25T23:27:45.639Z,12.29
2022-12-25T23:30:47.351Z,12.27
2022-12-25T23:33:49.012Z,12.22
2022-12-25T23:36:51.989Z,12.21
2022-12-25T23:39:54.184Z,12.23
2022-12-25T23:42:55.869Z,12.36
2022-12-25T23:45:57.563Z,12.24
2022-12-25T23:48:59.709Z,12.19
2022-12-25T23:52:02.761Z,12.13
2022-12-25T23:55:05.542Z,12.10
2022-12-25T23:58:07.189Z,12.12
